Time;durP1;ratioP1;P1;durP2;ratioP2;P2;SDS_P1;SDS_P2;PMS_P1;PMS_P2;Temp;Humidity;BMP_temperature;BMP_pressure;BME280_temperature;BME280_humidity;BME280_pressure;Samples;Min_cycle;Max_cycle;Signal;HPM_P1;HPM_P2
2021/12/13 00:00:26;;;;;;;8.97;7.57;;;7.20;89.80;;;;;;5004359;28;20834;-49
2021/12/13 00:03:08;;;;;;;8.30;5.93;;;7.20;89.80;;;;;;5002673;28;20460;-49
2021/12/13 00:05:40;;;;;;;11.37;6.90;;;7.20;89.80;;;;;;4985926;28;20543;-49
2021/12/13 00:08:11;;;;;;;7.20;5.60;;;7.20;89.80;;;;;;5004513;28;20494;-49
2021/12/13 00:10:44;;;;;;;7.73;7.00;;;7.10;89.80;;;;;;5001138;28;20567;-49
2021/12/13 00:13:36;;;;;;;8.77;6.83;;;7.20;89.80;;;;;;5001715;28;20456;-49
2021/12/13 00:16:06;;;;;;;8.03;6.00;;;7.20;89.80;;;;;;4978487;28;20595;-49
2021/12/13 00:18:38;;;;;;;7.17;6.13;;;7.20;89.80;;;;;;5003043;28;20540;-49
2021/12/13 00:21:27;;;;;;;8.00;6.43;;;7.20;89.80;;;;;;4999555;28;20456;-49
2021/12/13 00:24:01;;;;;;;7.40;5.67;;;7.20;89.80;;;;;;4972518;28;20531;-49
2021/12/13 00:26:32;;;;;;;9.63;7.77;;;7.20;89.80;;;;;;4989228;28;20498;-49
2021/12/13 00:29:07;;;;;;;7.53;5.80;;;7.20;89.80;;;;;;5004372;28;20461;-49
2021/12/13 00:31:44;;;;;;;11.93;6.50;;;7.20;89.80;;;;;;5002522;28;20459;-49
2021/12/13 00:34:18;;;;;;;7.47;6.70;;;7.20;89.80;;;;;;4988105;28;20507;-49
2021/12/13 00:36:52;;;;;;;7.10;5.90;;;7.20;89.80;;;;;;5004538;28;20457;-49
2021/12/13 00:39:30;;;;;;;6.90;6.20;;;7.30;89.80;;;;;;5002062;28;20995;-49
2021/12/13 00:42:00;;;;;;;10.00;6.60;;;7.30;89.80;;;;;;5002909;28;20467;-49
2021/12/13 00:44:33;;;;;;;9.07;6.60;;;7.30;89.80;;;;;;5000824;28;20484;-49
2021/12/13 00:47:07;;;;;;;8.83;7.17;;;7.20;89.80;;;;;;5002414;28;20467;-49
2021/12/13 00:49:38;;;;;;;7.23;5.83;;;7.20;89.80;;;;;;5002984;28;20443;-49
2021/12/13 00:52:05;;;;;;;9.77;6.70;;;7.30;89.80;;;;;;5003704;28;20459;-49
2021/12/13 00:54:39;;;;;;;8.70;6.20;;;7.20;89.80;;;;;;4990927;28;20448;-49
2021/12/13 00:57:07;;;;;;;8.87;7.03;;;7.20;89.80;;;;;;5004726;28;20904;-49
2021/12/13 00:59:40;;;;;;;8.23;6.60;;;7.20;89.80;;;;;;5004812;28;20487;-49
2021/12/13 01:02:26;;;;;;;6.47;5.87;;;7.20;89.80;;;;;;5004207;28;20690;-49
2021/12/13 01:04:56;;;;;;;9.80;6.90;;;7.20;89.80;;;;;;5004037;28;20484;-49
2021/12/13 01:07:57;;;;;;;6.60;5.57;;;7.20;89.80;;;;;;5007014;28;20588;-49
2021/12/13 01:10:42;;;;;;;8.30;6.30;;;7.20;89.80;;;;;;5005589;28;20472;-49
2021/12/13 01:13:29;;;;;;;7.13;6.07;;;7.20;89.80;;;;;;5002600;28;20456;-49
2021/12/13 01:16:55;;;;;;;6.43;5.27;;;7.30;89.80;;;;;;4993402;28;20962;-49
2021/12/13 01:19:49;;;;;;;8.00;6.20;;;7.30;89.80;;;;;;4996979;28;20459;-49
2021/12/13 01:22:48;;;;;;;7.13;5.20;;;7.30;89.80;;;;;;4993085;28;20466;-49
2021/12/13 01:25:22;;;;;;;5.37;4.87;;;7.30;89.80;;;;;;5001240;28;20489;-49
2021/12/13 01:28:03;;;;;;;5.80;5.07;;;7.30;89.80;;;;;;4994893;28;20453;-49
2021/12/13 01:30:37;;;;;;;7.70;6.20;;;7.30;89.80;;;;;;5005933;28;20467;-49
2021/12/13 01:33:10;;;;;;;8.20;6.20;;;7.30;89.80;;;;;;5007428;28;21040;-49
2021/12/13 01:35:41;;;;;;;8.77;6.80;;;7.30;89.80;;;;;;4992788;28;20465;-49
2021/12/13 01:38:13;;;;;;;8.07;7.03;;;7.30;89.80;;;;;;4986522;28;20464;-49
2021/12/13 01:40:43;;;;;;;10.33;7.70;;;7.30;89.80;;;;;;4992236;28;20448;-49
2021/12/13 01:43:18;;;;;;;11.20;7.13;;;7.30;89.80;;;;;;5001407;28;20471;-49
2021/12/13 01:45:47;;;;;;;10.63;7.90;;;7.30;89.80;;;;;;4992811;28;20823;-49
2021/12/13 01:48:30;;;;;;;14.33;8.63;;;7.30;89.80;;;;;;5002954;28;20834;-49
2021/12/13 01:51:08;;;;;;;10.57;7.87;;;7.30;89.80;;;;;;4976700;28;20980;-49
2021/12/13 01:53:46;;;;;;;17.20;9.87;;;7.30;89.80;;;;;;5000712;28;20995;-49
2021/12/13 01:59:27;;;;;;;11.77;8.87;;;7.30;89.80;;;;;;5005472;28;21013;-49
2021/12/13 02:02:01;;;;;;;14.73;9.40;;;7.30;89.80;;;;;;5003561;28;20492;-49
2021/12/13 02:04:28;;;;;;;12.00;8.40;;;7.30;89.80;;;;;;4986890;28;20844;-49
2021/12/13 02:07:01;;;;;;;11.63;8.87;;;7.30;89.80;;;;;;5004008;28;20932;-49
2021/12/13 02:09:37;;;;;;;12.47;8.87;;;7.30;89.80;;;;;;5010571;28;20467;-49
2021/12/13 02:12:14;;;;;;;13.13;7.77;;;7.30;89.80;;;;;;5002044;28;20475;-49
2021/12/13 02:14:48;;;;;;;13.20;8.87;;;7.30;89.80;;;;;;5001843;28;20518;-49
2021/12/13 02:17:20;;;;;;;14.17;8.43;;;7.30;89.80;;;;;;4988721;28;20471;-49
2021/12/13 02:20:08;;;;;;;8.67;7.63;;;7.30;89.80;;;;;;4999733;28;20471;-49
2021/12/13 02:22:41;;;;;;;10.50;7.23;;;7.30;89.80;;;;;;5004878;28;20475;-49
2021/12/13 02:25:23;;;;;;;13.07;8.93;;;7.30;89.80;;;;;;5003467;28;20496;-49
2021/12/13 02:27:58;;;;;;;12.97;8.50;;;7.30;89.80;;;;;;5007307;28;20470;-49
2021/12/13 02:30:28;;;;;;;11.67;8.20;;;7.30;89.80;;;;;;5001562;28;20460;-49
2021/12/13 02:32:56;;;;;;;17.00;8.97;;;7.20;89.80;;;;;;5001117;28;20474;-49
2021/12/13 02:35:28;;;;;;;11.90;7.70;;;7.30;89.80;;;;;;5003839;28;20467;-49
2021/12/13 02:37:57;;;;;;;10.77;8.13;;;7.20;89.80;;;;;;5005653;28;20464;-49
2021/12/13 02:40:24;;;;;;;12.20;7.90;;;7.20;89.80;;;;;;4969314;28;20846;-49
2021/12/13 02:42:52;;;;;;;10.23;8.40;;;7.30;89.80;;;;;;5001837;28;20472;-49
2021/12/13 02:45:27;;;;;;;10.50;7.50;;;7.30;89.80;;;;;;4991241;28;20508;-49
2021/12/13 02:48:02;;;;;;;9.10;7.10;;;7.30;89.80;;;;;;4988526;28;20463;-49
2021/12/13 02:50:43;;;;;;;8.90;7.93;;;7.30;89.80;;;;;;4988610;28;20547;-49
2021/12/13 02:53:13;;;;;;;10.67;7.67;;;7.30;89.80;;;;;;4998325;28;20455;-49
2021/12/13 02:55:40;;;;;;;11.80;8.00;;;7.30;89.80;;;;;;5002931;28;20467;-49
2021/12/13 02:58:12;;;;;;;8.97;8.03;;;7.20;89.80;;;;;;5004371;28;20998;-49
2021/12/13 03:00:49;;;;;;;9.33;6.77;;;7.20;89.80;;;;;;5002657;28;21228;-49
2021/12/13 03:03:21;;;;;;;9.60;7.63;;;7.20;89.80;;;;;;5005512;28;20882;-49
2021/12/13 03:05:50;;;;;;;9.63;8.07;;;7.20;89.80;;;;;;4974946;28;20529;-49
2021/12/13 03:08:35;;;;;;;13.40;8.77;;;7.20;89.80;;;;;;5008601;28;20456;-49
2021/12/13 03:11:08;;;;;;;13.23;7.50;;;7.20;89.80;;;;;;5006356;28;20453;-49
2021/12/13 03:13:35;;;;;;;13.83;8.50;;;7.20;89.80;;;;;;5004322;28;20445;-49
2021/12/13 03:16:14;;;;;;;11.67;7.77;;;7.20;89.80;;;;;;5005608;28;20463;-49
2021/12/13 03:18:54;;;;;;;8.00;6.73;;;7.20;89.80;;;;;;4991578;28;20461;-49
2021/12/13 03:21:41;;;;;;;10.90;7.47;;;7.20;89.80;;;;;;4988034;28;20958;-54
2021/12/13 03:24:22;;;;;;;9.37;6.80;;;7.20;89.80;;;;;;5001736;28;20877;-54
2021/12/13 03:27:27;;;;;;;10.20;7.60;;;7.20;89.80;;;;;;5002842;28;20449;-52
2021/12/13 03:29:58;;;;;;;9.57;7.20;;;7.20;89.80;;;;;;5001231;28;20471;-53
2021/12/13 03:32:50;;;;;;;11.20;8.37;;;7.20;89.80;;;;;;5012141;28;20464;-52
2021/12/13 03:35:33;;;;;;;11.00;8.13;;;7.20;89.80;;;;;;4999076;28;20829;-53
2021/12/13 03:38:07;;;;;;;12.60;8.17;;;7.20;89.80;;;;;;5005376;28;20460;-52
2021/12/13 03:40:34;;;;;;;10.83;7.57;;;7.10;89.80;;;;;;4973212;28;20880;-53
2021/12/13 03:43:18;;;;;;;8.43;6.63;;;7.10;89.80;;;;;;5010942;28;20941;-52
2021/12/13 03:45:51;;;;;;;8.90;7.17;;;7.10;89.80;;;;;;5007979;28;20499;-52
2021/12/13 03:48:20;;;;;;;11.00;8.00;;;7.10;89.80;;;;;;5004232;28;20954;-52
2021/12/13 03:50:59;;;;;;;9.33;7.40;;;7.10;89.80;;;;;;5010159;28;20476;-52
2021/12/13 03:53:31;;;;;;;8.97;6.93;;;7.10;89.80;;;;;;5007827;28;20544;-52
2021/12/13 03:56:04;;;;;;;10.70;8.97;;;7.10;89.80;;;;;;5004701;28;20980;-52
2021/12/13 03:58:36;;;;;;;9.33;7.87;;;7.10;89.80;;;;;;5006726;28;20485;-51
2021/12/13 04:01:23;;;;;;;9.93;8.00;;;7.10;89.80;;;;;;4984973;28;20448;-53
2021/12/13 04:03:54;;;;;;;14.30;9.83;;;7.10;89.80;;;;;;5005276;28;20625;-52
2021/12/13 04:06:21;;;;;;;14.77;10.23;;;7.10;89.80;;;;;;5001918;28;20468;-53
2021/12/13 04:08:55;;;;;;;16.83;10.57;;;7.10;89.80;;;;;;4997601;28;20817;-52
2021/12/13 04:11:25;;;;;;;14.13;8.93;;;7.10;89.80;;;;;;5004476;28;20962;-52
2021/12/13 04:14:00;;;;;;;12.77;9.43;;;7.10;89.80;;;;;;5002387;28;20458;-52
2021/12/13 04:16:50;;;;;;;12.03;8.87;;;7.10;89.80;;;;;;4988302;28;20819;-52
2021/12/13 04:19:22;;;;;;;9.77;7.50;;;7.10;89.80;;;;;;5002895;28;20461;-52
2021/12/13 04:21:49;;;;;;;11.13;7.77;;;7.10;89.80;;;;;;4987314;28;20949;-52
2021/12/13 04:24:40;;;;;;;11.33;8.30;;;7.20;89.80;;;;;;5006232;28;20456;-52
2021/12/13 04:27:20;;;;;;;12.93;9.63;;;7.20;89.80;;;;;;4994286;28;20450;-52
2021/12/13 04:29:49;;;;;;;12.43;8.80;;;7.20;89.80;;;;;;4987921;28;21087;-52
2021/12/13 04:32:30;;;;;;;12.50;8.77;;;7.10;89.80;;;;;;5012953;28;20474;-52
2021/12/13 04:35:00;;;;;;;12.47;8.83;;;7.20;89.80;;;;;;4990361;28;20453;-52
2021/12/13 04:37:32;;;;;;;11.13;8.83;;;7.10;89.80;;;;;;5007600;28;20946;-52
2021/12/13 04:40:08;;;;;;;14.40;10.37;;;7.20;89.80;;;;;;5012044;28;20459;-52
2021/12/13 04:42:35;;;;;;;13.00;8.80;;;7.20;89.80;;;;;;4997207;28;20463;-52
2021/12/13 04:45:07;;;;;;;11.20;8.33;;;7.20;89.80;;;;;;5011351;28;20506;-52
2021/12/13 04:47:37;;;;;;;10.63;8.40;;;7.10;89.80;;;;;;5006582;28;20849;-52
2021/12/13 04:50:08;;;;;;;10.53;8.00;;;7.10;89.80;;;;;;5005729;28;20669;-52
2021/12/13 04:52:36;;;;;;;8.50;7.70;;;7.10;89.80;;;;;;5006202;28;20504;-52
2021/12/13 04:55:08;;;;;;;7.63;6.50;;;7.10;89.80;;;;;;4993392;28;20452;-52
2021/12/13 04:57:35;;;;;;;11.70;8.47;;;7.10;89.80;;;;;;4991544;28;20957;-52
2021/12/13 05:00:09;;;;;;;9.43;8.07;;;7.10;89.80;;;;;;5009004;28;20445;-52
2021/12/13 05:02:50;;;;;;;10.00;8.10;;;7.00;89.80;;;;;;5013822;28;20466;-52
2021/12/13 05:05:18;;;;;;;8.33;7.40;;;7.00;89.80;;;;;;5005067;28;20520;-52
2021/12/13 05:07:49;;;;;;;8.93;7.33;;;6.90;89.80;;;;;;4990504;28;20466;-53
2021/12/13 05:10:17;;;;;;;8.57;7.77;;;6.90;89.80;;;;;;5009070;28;20459;-52
2021/12/13 05:13:14;;;;;;;12.13;9.03;;;6.90;89.80;;;;;;4998656;28;20453;-52
2021/12/13 05:15:50;;;;;;;11.10;8.83;;;6.80;89.80;;;;;;5007867;28;20456;-53
2021/12/13 05:18:25;;;;;;;10.03;7.90;;;6.80;89.80;;;;;;5006454;28;20455;-52
2021/12/13 05:21:03;;;;;;;12.27;8.77;;;6.80;89.80;;;;;;5013536;28;20831;-52
2021/12/13 05:23:31;;;;;;;9.60;7.80;;;6.80;89.80;;;;;;5004103;28;20468;-52
2021/12/13 05:26:06;;;;;;;10.63;7.57;;;6.80;89.80;;;;;;5009490;28;20496;-52
2021/12/13 05:28:45;;;;;;;11.63;8.23;;;6.80;89.80;;;;;;5007923;28;20448;-52
2021/12/13 05:31:20;;;;;;;10.13;7.87;;;6.80;89.80;;;;;;5009070;28;20452;-52
2021/12/13 05:33:52;;;;;;;9.33;7.20;;;6.80;89.80;;;;;;4993808;28;20495;-52
2021/12/13 05:36:25;;;;;;;10.30;8.77;;;6.80;89.80;;;;;;4993048;28;20450;-52
2021/12/13 05:39:22;;;;;;;13.70;8.93;;;6.70;89.80;;;;;;5006749;28;20456;-52
2021/12/13 05:42:10;;;;;;;10.97;8.77;;;6.70;89.80;;;;;;5012211;28;20452;-52
2021/12/13 05:44:43;;;;;;;16.00;10.37;;;6.80;89.80;;;;;;5011560;28;20547;-52
2021/12/13 05:47:21;;;;;;;15.10;10.17;;;6.80;89.80;;;;;;4977141;28;20527;-52
2021/12/13 05:49:49;;;;;;;12.70;9.80;;;6.80;89.80;;;;;;4979934;28;20455;-52
2021/12/13 05:52:24;;;;;;;11.47;8.97;;;6.70;89.80;;;;;;5008390;28;20837;-52
2021/12/13 05:54:57;;;;;;;11.20;8.43;;;6.70;89.80;;;;;;5011004;28;20470;-52
2021/12/13 05:57:29;;;;;;;12.30;9.90;;;6.80;89.80;;;;;;5011918;28;20812;-52
2021/12/13 06:00:04;;;;;;;10.23;8.40;;;6.80;89.80;;;;;;5009592;28;21047;-52
2021/12/13 06:02:54;;;;;;;12.17;8.87;;;6.80;89.80;;;;;;4991766;28;20464;-52
2021/12/13 06:05:28;;;;;;;14.60;9.13;;;6.80;89.80;;;;;;5008997;28;20500;-52
2021/12/13 06:08:01;;;;;;;10.00;7.53;;;6.80;89.80;;;;;;5003700;28;20460;-52
2021/12/13 06:10:38;;;;;;;12.40;9.27;;;6.80;89.80;;;;;;5009476;28;20810;-52
2021/12/13 06:13:08;;;;;;;12.23;9.27;;;6.70;89.80;;;;;;5003540;28;21141;-52
2021/12/13 06:15:41;;;;;;;15.10;9.83;;;6.70;89.80;;;;;;4978491;28;20448;-52
2021/12/13 06:18:13;;;;;;;14.30;9.40;;;6.70;89.80;;;;;;5008605;28;20459;-52
2021/12/13 06:20:50;;;;;;;13.80;9.97;;;6.70;89.80;;;;;;5002942;28;20456;-52
2021/12/13 06:23:32;;;;;;;14.17;9.27;;;6.70;89.80;;;;;;5002131;28;20472;-52
2021/12/13 06:26:09;;;;;;;11.20;8.93;;;6.70;89.80;;;;;;5005285;28;20476;-52
2021/12/13 06:28:53;;;;;;;12.07;9.30;;;6.70;89.80;;;;;;5010687;28;20539;-52
2021/12/13 06:31:21;;;;;;;15.83;10.40;;;6.70;89.80;;;;;;4993124;28;20643;-52
2021/12/13 06:33:50;;;;;;;14.30;10.63;;;6.70;89.80;;;;;;4986010;28;20526;-52
2021/12/13 06:36:41;;;;;;;14.30;10.80;;;6.70;89.80;;;;;;5010950;28;20461;-52
2021/12/13 06:39:11;;;;;;;15.40;10.90;;;6.70;89.80;;;;;;5008170;28;20460;-52
2021/12/13 06:41:45;;;;;;;13.60;10.50;;;6.70;89.80;;;;;;5003416;28;21787;-52
2021/12/13 06:44:37;;;;;;;15.00;11.20;;;6.70;89.80;;;;;;5001255;28;20468;-52
2021/12/13 06:47:15;;;;;;;15.33;11.53;;;6.80;89.80;;;;;;4998257;28;20488;-52
2021/12/13 06:49:48;;;;;;;14.80;11.80;;;6.80;89.80;;;;;;4993308;28;20476;-52
2021/12/13 06:52:15;;;;;;;14.83;10.50;;;6.80;89.80;;;;;;5006337;28;20461;-52
2021/12/13 06:55:00;;;;;;;13.57;10.50;;;6.80;89.80;;;;;;5012138;28;20444;-52
2021/12/13 06:57:30;;;;;;;12.70;10.47;;;6.80;89.80;;;;;;5007973;28;20466;-52
2021/12/13 07:00:01;;;;;;;13.40;9.40;;;6.80;89.80;;;;;;5002752;28;20541;-52
2021/12/13 07:02:46;;;;;;;13.87;10.27;;;6.80;89.80;;;;;;5001344;28;20448;-52
2021/12/13 07:05:16;;;;;;;12.40;8.83;;;6.80;89.80;;;;;;5002797;28;21992;-51
2021/12/13 07:08:02;;;;;;;14.43;10.63;;;6.80;89.80;;;;;;4998967;28;20916;-52
2021/12/13 07:10:40;;;;;;;12.43;9.60;;;6.90;89.80;;;;;;5001438;28;20464;-52
2021/12/13 07:13:29;;;;;;;16.13;9.00;;;6.90;89.80;;;;;;5004733;28;20836;-52
2021/12/13 07:16:02;;;;;;;11.67;8.17;;;6.90;89.80;;;;;;4990077;28;20469;-52
2021/12/13 07:18:40;;;;;;;9.00;7.70;;;6.90;89.80;;;;;;5002959;28;20474;-52
2021/12/13 07:21:17;;;;;;;10.40;8.20;;;6.90;89.80;;;;;;5001738;28;20533;-52
2021/12/13 07:24:06;;;;;;;10.47;7.87;;;6.90;89.80;;;;;;4988526;28;20629;-52
2021/12/13 07:26:52;;;;;;;9.90;7.47;;;6.90;89.80;;;;;;4982231;28;20526;-52
2021/12/13 07:29:30;;;;;;;11.53;7.07;;;6.90;89.80;;;;;;5005848;28;20453;-51
2021/12/13 07:32:06;;;;;;;9.97;8.30;;;7.00;89.80;;;;;;4988285;28;20449;-52
2021/12/13 07:34:55;;;;;;;11.93;8.13;;;7.00;89.80;;;;;;5006478;28;20455;-52
2021/12/13 07:37:41;;;;;;;11.37;7.60;;;7.00;89.80;;;;;;4998275;28;20796;-53
2021/12/13 07:40:33;;;;;;;14.30;11.57;;;7.00;89.80;;;;;;5000589;28;20979;-52
2021/12/13 07:43:08;;;;;;;9.97;7.80;;;7.00;89.80;;;;;;5002934;28;20483;-52
2021/12/13 07:45:56;;;;;;;11.20;8.20;;;7.00;89.80;;;;;;5003461;28;20502;-52
2021/12/13 07:48:26;;;;;;;14.20;9.37;;;7.00;89.80;;;;;;5001669;28;20829;-52
2021/12/13 07:51:04;;;;;;;10.33;7.47;;;7.00;89.80;;;;;;5001280;28;20448;-51
2021/12/13 07:54:05;;;;;;;9.93;6.97;;;7.10;89.80;;;;;;5003642;28;20468;-52
2021/12/13 07:56:31;;;;;;;8.67;6.90;;;7.10;89.80;;;;;;4977126;28;20466;-52
2021/12/13 07:59:07;;;;;;;7.63;6.77;;;7.10;89.80;;;;;;5002280;28;20480;-52
2021/12/13 08:01:48;;;;;;;9.43;7.37;;;7.10;89.80;;;;;;4996373;28;20467;-52
2021/12/13 08:04:23;;;;;;;7.97;6.47;;;7.10;89.80;;;;;;4999076;28;20470;-52
2021/12/13 08:06:57;;;;;;;9.20;6.97;;;7.10;89.80;;;;;;5001284;28;20485;-52
2021/12/13 08:09:28;;;;;;;10.20;7.10;;;7.10;89.80;;;;;;5004914;28;20547;-52
2021/12/13 08:12:03;;;;;;;9.87;7.27;;;7.10;89.80;;;;;;4984818;28;20453;-52
2021/12/13 08:14:37;;;;;;;9.27;7.00;;;7.20;89.80;;;;;;4990716;28;20473;-53
2021/12/13 08:17:22;;;;;;;9.23;7.57;;;7.20;89.80;;;;;;5004606;28;20500;-52
2021/12/13 08:20:03;;;;;;;12.97;7.63;;;7.30;89.80;;;;;;5001097;28;21317;-52
2021/12/13 08:22:30;;;;;;;10.30;8.17;;;7.30;89.80;;;;;;5004226;28;20544;-52
2021/12/13 08:25:07;;;;;;;10.30;7.23;;;7.30;89.80;;;;;;4982436;28;20466;-52
2021/12/13 08:27:38;;;;;;;9.60;8.60;;;7.30;89.80;;;;;;5004252;28;20460;-53
2021/12/13 08:30:28;;;;;;;9.83;8.83;;;7.40;89.80;;;;;;4999061;28;20456;-52
2021/12/13 08:33:07;;;;;;;10.37;9.00;;;7.30;89.80;;;;;;5001483;28;20467;-53
2021/12/13 08:36:13;;;;;;;11.57;8.13;;;7.30;89.80;;;;;;4999138;28;20463;-52
2021/12/13 08:38:51;;;;;;;11.00;8.17;;;7.30;89.80;;;;;;4999707;28;20514;-52
2021/12/13 08:41:23;;;;;;;12.20;8.40;;;7.30;89.80;;;;;;4988810;28;20459;-52
2021/12/13 08:44:09;;;;;;;10.03;8.40;;;7.30;89.80;;;;;;4999579;28;20456;-52
2021/12/13 08:46:43;;;;;;;10.03;8.63;;;7.40;89.80;;;;;;4995890;28;20877;-52
2021/12/13 08:49:37;;;;;;;10.83;8.10;;;7.30;89.80;;;;;;4998916;28;20489;-53
2021/12/13 08:52:30;;;;;;;12.40;9.67;;;7.40;89.80;;;;;;4997516;28;20460;-52
2021/12/13 08:55:12;;;;;;;12.93;10.20;;;7.40;89.80;;;;;;4983821;28;21044;-53
2021/12/13 08:57:44;;;;;;;16.13;9.93;;;7.50;89.80;;;;;;4996518;28;20483;-52
2021/12/13 09:00:14;;;;;;;14.70;10.97;;;7.50;89.80;;;;;;4998112;28;20468;-52
2021/12/13 09:02:46;;;;;;;14.43;9.70;;;7.50;89.80;;;;;;4999333;28;20973;-52
2021/12/13 09:05:35;;;;;;;10.17;8.60;;;7.50;89.80;;;;;;5000302;28;20957;-52
2021/12/13 09:08:04;;;;;;;12.60;9.53;;;7.50;89.80;;;;;;4978415;28;20468;-52
2021/12/13 09:10:41;;;;;;;12.40;8.47;;;7.60;89.80;;;;;;4999665;28;20444;-52
2021/12/13 09:13:10;;;;;;;14.90;9.83;;;7.60;89.80;;;;;;4997181;28;20460;-52
2021/12/13 09:15:38;;;;;;;12.80;10.00;;;7.60;89.80;;;;;;4985788;28;20452;-52
2021/12/13 09:18:08;;;;;;;11.80;10.60;;;7.60;89.80;;;;;;5002309;28;20456;-53
2021/12/13 09:20:47;;;;;;;12.43;8.87;;;7.60;89.80;;;;;;4984717;28;20456;-53
2021/12/13 09:23:16;;;;;;;10.37;9.23;;;7.60;89.80;;;;;;5004047;28;20474;-52
2021/12/13 09:25:48;;;;;;;12.70;9.80;;;7.60;89.80;;;;;;5003264;28;20483;-52
2021/12/13 09:28:23;;;;;;;11.20;8.40;;;7.70;89.80;;;;;;5006111;28;20453;-52
2021/12/13 09:31:11;;;;;;;11.87;9.40;;;7.70;89.80;;;;;;5002746;28;20448;-53
2021/12/13 09:33:51;;;;;;;16.20;9.13;;;7.70;89.80;;;;;;5002363;28;21020;-52
2021/12/13 09:36:33;;;;;;;13.37;8.83;;;7.70;89.80;;;;;;5000188;28;20472;-52
2021/12/13 09:39:16;;;;;;;11.67;8.63;;;7.80;89.80;;;;;;5001825;28;20816;-52
2021/12/13 09:41:46;;;;;;;14.60;9.43;;;7.80;89.80;;;;;;5002158;28;20722;-52
2021/12/13 09:44:32;;;;;;;10.80;8.67;;;7.80;89.80;;;;;;5003295;28;20544;-54
2021/12/13 09:47:07;;;;;;;14.03;9.10;;;7.90;89.80;;;;;;4998674;28;20487;-51
2021/12/13 09:49:39;;;;;;;12.33;8.20;;;7.90;89.80;;;;;;5000893;28;20499;-51
2021/12/13 09:52:21;;;;;;;10.80;7.93;;;7.90;89.80;;;;;;5001402;28;20465;-51
2021/12/13 09:55:09;;;;;;;9.70;7.37;;;8.00;89.80;;;;;;4999968;28;20566;-51
2021/12/13 09:57:36;;;;;;;13.53;9.40;;;8.00;89.80;;;;;;4999685;28;20471;-51
2021/12/13 10:00:17;;;;;;;7.80;6.77;;;8.00;89.80;;;;;;4999483;28;20464;-51
2021/12/13 10:02:50;;;;;;;8.77;7.80;;;8.00;89.80;;;;;;4999286;28;20465;-51
2021/12/13 10:05:23;;;;;;;10.83;8.10;;;8.10;89.80;;;;;;4998504;28;20469;-51
2021/12/13 10:07:55;;;;;;;10.47;7.60;;;8.10;89.80;;;;;;5002312;28;20958;-51
2021/12/13 10:10:27;;;;;;;12.50;8.17;;;8.10;89.80;;;;;;5000419;28;20461;-51
2021/12/13 10:13:00;;;;;;;10.67;8.80;;;8.20;89.80;;;;;;5003619;28;20460;-53
2021/12/13 10:15:40;;;;;;;11.23;8.67;;;8.30;89.80;;;;;;5002938;28;20942;-51
2021/12/13 10:18:13;;;;;;;12.37;8.73;;;8.30;89.80;;;;;;5001434;28;20474;-52
2021/12/13 10:20:44;;;;;;;8.93;7.50;;;8.30;89.80;;;;;;5001482;28;20467;-52
2021/12/13 10:23:15;;;;;;;9.33;7.57;;;8.40;89.80;;;;;;4997548;28;20464;-51
2021/12/13 10:25:46;;;;;;;9.50;7.63;;;8.40;89.80;;;;;;5000454;28;20467;-51
2021/12/13 10:28:18;;;;;;;12.33;8.90;;;8.40;89.80;;;;;;5000176;28;20460;-52
2021/12/13 10:30:57;;;;;;;9.77;8.50;;;8.40;89.80;;;;;;4987790;28;20474;-51
2021/12/13 10:33:26;;;;;;;10.10;8.83;;;8.40;89.70;;;;;;4998159;28;22128;-52
2021/12/13 10:35:55;;;;;;;12.83;8.77;;;8.50;89.50;;;;;;4998450;28;20483;-51
2021/12/13 10:38:27;;;;;;;10.87;8.27;;;8.60;88.30;;;;;;5003556;28;20449;-51
2021/12/13 10:41:09;;;;;;;12.60;8.30;;;8.60;88.20;;;;;;4998753;28;20463;-51
2021/12/13 10:43:44;;;;;;;13.33;9.93;;;8.60;88.50;;;;;;5001013;28;20814;-51
2021/12/13 10:46:20;;;;;;;9.60;7.50;;;8.50;88.80;;;;;;4985851;28;20488;-51
2021/12/13 10:48:51;;;;;;;10.33;8.63;;;8.50;89.00;;;;;;4986811;28;20460;-52
2021/12/13 10:51:20;;;;;;;15.33;10.10;;;8.60;89.10;;;;;;4987633;28;20825;-51
2021/12/13 10:53:52;;;;;;;11.67;9.00;;;8.60;88.50;;;;;;4987500;28;20500;-51
2021/12/13 10:56:28;;;;;;;11.93;9.57;;;8.60;88.80;;;;;;5001399;28;20467;-52
2021/12/13 10:58:58;;;;;;;10.67;8.63;;;8.70;89.00;;;;;;4998432;28;20498;-51
2021/12/13 11:01:30;;;;;;;10.57;9.30;;;8.70;89.00;;;;;;5002795;28;20471;-52
2021/12/13 11:04:06;;;;;;;14.20;9.13;;;8.70;89.00;;;;;;5003830;28;20515;-51
2021/12/13 11:06:42;;;;;;;13.30;9.40;;;8.70;89.00;;;;;;5003363;28;20498;-52
2021/12/13 11:09:12;;;;;;;12.37;10.00;;;8.80;89.00;;;;;;5001520;28;20468;-52
2021/12/13 11:11:47;;;;;;;14.40;9.10;;;8.80;88.90;;;;;;5000829;28;20457;-51
2021/12/13 11:14:17;;;;;;;13.17;9.43;;;8.90;88.90;;;;;;4982593;28;20464;-52
2021/12/13 11:16:49;;;;;;;11.37;8.73;;;8.90;88.80;;;;;;4999497;28;20485;-52
2021/12/13 11:19:19;;;;;;;13.07;9.73;;;8.90;88.90;;;;;;4984381;28;20472;-51
2021/12/13 11:21:50;;;;;;;11.60;8.70;;;8.90;89.00;;;;;;4998357;28;20823;-52
2021/12/13 11:24:22;;;;;;;10.97;9.00;;;8.90;89.00;;;;;;4980663;28;20468;-51
2021/12/13 11:26:52;;;;;;;10.53;8.67;;;8.90;89.00;;;;;;4998514;28;20488;-51
2021/12/13 11:29:19;;;;;;;12.60;9.20;;;9.00;88.90;;;;;;5000963;28;20588;-51
2021/12/13 11:32:05;;;;;;;12.43;9.10;;;9.00;88.90;;;;;;4999586;28;20465;-52
2021/12/13 11:34:51;;;;;;;9.73;7.60;;;9.10;88.30;;;;;;4984932;28;20960;-51
2021/12/13 11:37:56;;;;;;;20.73;8.93;;;9.10;88.30;;;;;;4998771;28;20823;-51
2021/12/13 11:41:02;;;;;;;11.80;8.87;;;9.10;88.20;;;;;;4965628;28;20459;-52
2021/12/13 11:43:55;;;;;;;11.93;7.80;;;9.10;88.20;;;;;;4973173;28;20467;-52
2021/12/13 11:46:59;;;;;;;10.40;7.97;;;9.10;88.30;;;;;;5001654;28;21016;-51
2021/12/13 11:49:26;;;;;;;10.10;7.93;;;9.20;88.30;;;;;;5002755;28;20647;-52
2021/12/13 11:52:11;;;;;;;11.47;8.43;;;9.20;88.20;;;;;;5001247;28;20959;-52
2021/12/13 11:55:12;;;;;;;11.57;7.93;;;9.20;88.10;;;;;;5002257;28;20937;-51
2021/12/13 11:58:16;;;;;;;8.37;7.30;;;9.30;88.10;;;;;;5004186;28;20459;-51
2021/12/13 12:00:58;;;;;;;9.60;7.70;;;9.30;87.90;;;;;;5001003;28;20455;-52
2021/12/13 12:03:52;;;;;;;9.83;6.80;;;9.30;87.70;;;;;;5003873;28;20474;-52
2021/12/13 12:06:47;;;;;;;7.37;6.53;;;9.30;87.60;;;;;;5003290;28;20500;-52
2021/12/13 12:09:20;;;;;;;10.53;6.70;;;9.40;86.60;;;;;;4997876;28;20514;-51
2021/12/13 12:12:19;;;;;;;7.87;6.30;;;9.40;86.00;;;;;;4995231;28;21015;-51
2021/12/13 12:14:50;;;;;;;7.30;6.60;;;9.50;85.10;;;;;;5000966;28;20467;-52
2021/12/13 12:17:18;;;;;;;8.90;6.47;;;9.40;85.50;;;;;;5000980;28;20460;-52
2021/12/13 12:19:46;;;;;;;7.80;6.50;;;9.40;85.80;;;;;;4997324;28;20464;-52
2021/12/13 12:22:18;;;;;;;7.50;5.90;;;9.40;86.10;;;;;;4993454;28;20460;-51
2021/12/13 12:24:57;;;;;;;7.03;6.33;;;9.40;86.10;;;;;;5000503;28;20547;-51
2021/12/13 12:27:31;;;;;;;8.07;6.70;;;9.40;86.30;;;;;;5002920;28;20483;-51
2021/12/13 12:30:04;;;;;;;21.33;12.50;;;9.40;86.40;;;;;;5000976;28;20991;-52
2021/12/13 12:32:35;;;;;;;8.63;7.73;;;9.50;85.80;;;;;;4998076;28;20503;-53
2021/12/13 12:35:05;;;;;;;8.67;6.70;;;9.60;85.40;;;;;;5001005;28;21026;-51
2021/12/13 12:37:36;;;;;;;7.93;7.10;;;9.60;85.40;;;;;;4995499;28;20472;-52
2021/12/13 12:40:09;;;;;;;8.90;6.70;;;9.60;85.40;;;;;;5000386;28;20547;-52
2021/12/13 12:42:44;;;;;;;8.53;6.40;;;9.60;85.80;;;;;;5000605;28;20475;-51
2021/12/13 12:45:16;;;;;;;8.33;7.33;;;9.60;85.70;;;;;;4968488;28;20464;-52
2021/12/13 12:47:46;;;;;;;7.57;6.40;;;9.60;85.70;;;;;;5000284;28;20587;-52
2021/12/13 12:50:19;;;;;;;6.70;5.83;;;9.60;85.90;;;;;;5001953;28;20452;-51
2021/12/13 12:52:48;;;;;;;7.30;6.00;;;9.60;86.00;;;;;;4998388;28;20511;-52
2021/12/13 12:55:19;;;;;;;6.90;6.10;;;9.60;86.00;;;;;;4999676;28;20456;-52
2021/12/13 12:57:46;;;;;;;7.00;5.73;;;9.60;86.00;;;;;;5001749;28;20469;-51
2021/12/13 13:00:14;;;;;;;6.67;6.00;;;9.70;85.90;;;;;;4985863;28;20467;-51
2021/12/13 13:02:50;;;;;;;7.30;6.40;;;9.70;85.70;;;;;;4986981;28;20463;-51
2021/12/13 13:05:20;;;;;;;6.73;6.00;;;9.70;85.60;;;;;;5003725;28;21315;-52
2021/12/13 13:07:51;;;;;;;7.80;6.97;;;9.80;85.50;;;;;;5005651;28;20496;-52
2021/12/13 13:10:26;;;;;;;6.50;5.90;;;9.80;85.30;;;;;;5003550;28;20461;-52
2021/12/13 13:12:55;;;;;;;7.60;6.63;;;9.80;85.20;;;;;;5005908;28;20455;-52
2021/12/13 13:15:35;;;;;;;5.60;5.10;;;9.80;85.20;;;;;;5004120;28;20859;-52
2021/12/13 13:18:04;;;;;;;6.27;5.67;;;9.80;85.10;;;;;;5006075;28;20473;-53
2021/12/13 13:20:38;;;;;;;7.10;5.73;;;9.80;85.00;;;;;;5002992;28;20464;-52
2021/12/13 13:23:07;;;;;;;6.60;6.00;;;9.80;85.00;;;;;;5005016;28;20470;-52
2021/12/13 13:25:43;;;;;;;7.23;6.53;;;9.80;85.00;;;;;;5004770;28;20468;-52
2021/12/13 13:28:27;;;;;;;9.53;6.30;;;9.80;85.00;;;;;;4985784;28;21015;-52
2021/12/13 13:31:10;;;;;;;10.07;7.33;;;9.80;85.00;;;;;;4989341;28;20448;-52
2021/12/13 13:33:45;;;;;;;6.77;6.07;;;9.80;85.10;;;;;;5004713;28;22228;-51
2021/12/13 13:36:23;;;;;;;8.90;7.03;;;9.80;85.10;;;;;;5003452;28;20545;-52
2021/12/13 13:38:50;;;;;;;8.60;6.47;;;9.80;85.00;;;;;;5002250;28;20464;-52
2021/12/13 13:41:20;;;;;;;7.13;5.80;;;9.80;85.00;;;;;;5004094;28;20690;-52